createdAt,value
2023-10-16T00:01:12.925Z,5.20
2023-10-16T00:03:43.174Z,5.30
2023-10-16T00:06:14.336Z,5.60
2023-10-16T00:08:49.914Z,5.70
2023-10-16T00:11:19.872Z,5.50
2023-10-16T00:13:51.037Z,5.20
2023-10-16T00:16:23.439Z,5.20
2023-10-16T00:18:52.405Z,5.20
2023-10-16T00:21:22.340Z,5.30
2023-10-16T00:23:50.902Z,5.60
2023-10-16T00:26:22.604Z,5.60
2023-10-16T00:29:02.415Z,5.80
2023-10-16T00:31:34.420Z,5.80
2023-10-16T00:34:05.055Z,5.70
2023-10-16T00:36:35.093Z,5.60
2023-10-16T00:39:15.162Z,5.20
2023-10-16T00:41:45.622Z,5.20
2023-10-16T00:44:16.073Z,5.20
2023-10-16T00:46:46.688Z,5.60
2023-10-16T00:49:15.438Z,5.80
2023-10-16T00:51:46.507Z,5.90
2023-10-16T00:54:19.832Z,6.00
2023-10-16T00:56:51.208Z,5.70
2023-10-16T00:59:19.771Z,5.60
2023-10-16T01:01:52.558Z,5.70
2023-10-16T01:04:21.757Z,5.80
2023-10-16T01:06:53.006Z,5.80
2023-10-16T01:09:26.023Z,5.90
2023-10-16T01:11:55.295Z,6.00
2023-10-16T01:14:24.272Z,6.00
2023-10-16T01:16:53.639Z,5.80
2023-10-16T01:19:22.046Z,5.70
2023-10-16T01:21:54.448Z,5.70
2023-10-16T01:24:25.649Z,5.80
2023-10-16T01:26:55.233Z,5.80
2023-10-16T01:29:23.578Z,5.90
2023-10-16T01:31:53.631Z,5.90
2023-10-16T01:34:23.656Z,5.90
2023-10-16T01:36:53.247Z,5.90
2023-10-16T01:39:41.260Z,6.00
2023-10-16T01:42:13.442Z,6.10
2023-10-16T01:44:45.061Z,6.20
2023-10-16T01:47:17.249Z,6.10
2023-10-16T01:49:46.300Z,6.00
2023-10-16T01:52:14.973Z,6.10
2023-10-16T01:54:47.778Z,6.00
2023-10-16T01:57:18.121Z,5.60
2023-10-16T01:59:49.190Z,5.50
2023-10-16T02:02:19.561Z,5.10
2023-10-16T02:04:48.867Z,5.00
2023-10-16T02:07:18.532Z,5.10
2023-10-16T02:09:48.513Z,4.90
2023-10-16T02:12:18.958Z,4.90
2023-10-16T02:14:47.653Z,4.90
2023-10-16T02:17:21.220Z,4.50
2023-10-16T02:19:50.325Z,4.60
2023-10-16T02:22:23.909Z,4.50
2023-10-16T02:24:54.103Z,4.30
2023-10-16T02:27:26.228Z,4.30
2023-10-16T02:29:54.814Z,4.20
2023-10-16T02:32:24.712Z,4.50
2023-10-16T02:34:56.544Z,4.40
2023-10-16T02:37:24.687Z,4.40
2023-10-16T02:39:55.802Z,4.60
2023-10-16T02:42:27.090Z,4.60
2023-10-16T02:44:58.026Z,4.90
2023-10-16T02:47:28.469Z,5.10
2023-10-16T02:49:58.199Z,5.10
2023-10-16T02:52:27.188Z,5.10
2023-10-16T02:54:59.422Z,5.20
2023-10-16T02:57:27.852Z,5.00
2023-10-16T02:59:58.077Z,4.60
2023-10-16T03:02:29.269Z,4.60
2023-10-16T03:05:11.439Z,4.50
2023-10-16T03:07:46.717Z,4.60
2023-10-16T03:10:19.966Z,4.50
2023-10-16T03:12:51.048Z,4.60
2023-10-16T03:15:21.715Z,4.30
2023-10-16T03:17:51.855Z,4.60
2023-10-16T03:20:24.771Z,4.50
2023-10-16T03:22:54.356Z,4.60
2023-10-16T03:25:29.234Z,4.80
2023-10-16T03:27:57.634Z,5.10
2023-10-16T03:30:28.766Z,4.90
2023-10-16T03:32:59.618Z,4.90
2023-10-16T03:35:31.520Z,4.70
2023-10-16T03:38:00.608Z,4.20
2023-10-16T03:40:31.251Z,4.20
2023-10-16T03:42:59.951Z,4.40
2023-10-16T03:45:28.832Z,4.40
2023-10-16T03:47:59.143Z,4.60
2023-10-16T03:50:36.203Z,4.40
2023-10-16T03:53:08.960Z,4.60
2023-10-16T03:55:49.634Z,4.50
2023-10-16T03:58:18.235Z,4.40
2023-10-16T04:00:55.017Z,4.60
2023-10-16T04:03:24.363Z,4.40
2023-10-16T04:05:53.450Z,4.30
2023-10-16T04:08:24.890Z,4.60
2023-10-16T04:10:55.806Z,4.50
2023-10-16T04:13:27.709Z,4.60
2023-10-16T04:16:11.688Z,4.40
2023-10-16T04:18:41.691Z,4.30
2023-10-16T04:21:24.198Z,4.40
2023-10-16T04:23:54.943Z,4.20
2023-10-16T04:26:32.388Z,4.10
2023-10-16T04:29:19.398Z,4.00
2023-10-16T04:31:56.551Z,4.30
2023-10-16T04:34:35.089Z,4.30
2023-10-16T04:37:22.365Z,4.10
2023-10-16T04:40:09.342Z,4.20
2023-10-16T04:43:08.564Z,4.30
2023-10-16T04:46:00.646Z,4.10
2023-10-16T04:48:46.979Z,3.80
2023-10-16T04:54:06.830Z,3.70
2023-10-16T04:56:57.822Z,4.10
2023-10-16T04:59:55.227Z,4.10
2023-10-16T05:02:35.285Z,4.30
2023-10-16T05:05:17.702Z,4.40
2023-10-16T05:07:54.788Z,4.60
2023-10-16T05:10:49.697Z,4.00
2023-10-16T05:13:40.737Z,3.90
2023-10-16T05:16:30.200Z,4.00
2023-10-16T05:19:05.774Z,3.90
2023-10-16T05:21:52.181Z,3.90
2023-10-16T05:24:37.679Z,3.70
2023-10-16T05:27:26.062Z,3.80
2023-10-16T05:30:11.715Z,3.80
2023-10-16T05:32:58.559Z,3.60
2023-10-16T05:35:44.795Z,3.60
2023-10-16T05:38:30.499Z,3.70
2023-10-16T05:41:23.015Z,4.20
2023-10-16T05:44:08.949Z,4.20
2023-10-16T05:46:55.157Z,3.90
2023-10-16T05:49:42.410Z,4.20
2023-10-16T05:52:28.295Z,4.20
2023-10-16T05:55:14.426Z,4.30
2023-10-16T05:58:03.515Z,4.50
2023-10-16T06:00:49.498Z,4.50
2023-10-16T06:03:35.635Z,4.20
2023-10-16T06:06:23.090Z,4.10
2023-10-16T06:09:12.329Z,4.20
2023-10-16T06:11:58.057Z,4.40
2023-10-16T06:14:35.437Z,4.20
2023-10-16T06:17:14.151Z,3.80
2023-10-16T06:19:44.362Z,3.60
2023-10-16T06:22:15.276Z,3.60
2023-10-16T06:24:48.596Z,3.80
2023-10-16T06:27:22.207Z,4.00
2023-10-16T06:29:55.433Z,4.00
2023-10-16T06:32:26.747Z,4.40
2023-10-16T06:34:59.078Z,4.60
2023-10-16T06:37:32.480Z,4.70
2023-10-16T06:40:02.453Z,4.80
2023-10-16T06:42:31.517Z,4.70
2023-10-16T06:45:07.889Z,4.40
2023-10-16T06:47:38.049Z,4.30
2023-10-16T06:50:29.667Z,4.30
2023-10-16T06:53:01.712Z,4.30
2023-10-16T06:55:31.056Z,4.50
2023-10-16T06:57:59.304Z,4.50
2023-10-16T07:00:28.500Z,4.60
2023-10-16T07:02:58.913Z,4.60
2023-10-16T07:05:44.437Z,4.70
2023-10-16T07:08:18.282Z,4.90
2023-10-16T07:10:54.826Z,5.10
2023-10-16T07:13:32.548Z,5.30
2023-10-16T07:16:02.473Z,5.30
2023-10-16T07:18:33.751Z,5.30
2023-10-16T07:21:08.752Z,5.50
2023-10-16T07:23:39.734Z,5.50
2023-10-16T07:26:10.228Z,5.60
2023-10-16T07:28:43.444Z,5.60
2023-10-16T07:31:14.136Z,5.40
2023-10-16T07:33:43.229Z,5.30
2023-10-16T07:36:13.527Z,5.20
2023-10-16T07:38:43.323Z,5.20
2023-10-16T07:41:12.780Z,5.30
2023-10-16T07:43:47.050Z,5.50
2023-10-16T07:46:21.304Z,5.50
2023-10-16T07:48:52.458Z,5.50
2023-10-16T07:51:22.611Z,5.70
2023-10-16T07:53:52.322Z,5.80
2023-10-16T07:56:27.394Z,5.90
2023-10-16T07:59:08.180Z,6.00
2023-10-16T08:01:44.183Z,6.20
2023-10-16T08:04:29.181Z,6.20
2023-10-16T08:07:06.161Z,6.40
2023-10-16T08:09:51.157Z,6.40
2023-10-16T08:12:36.819Z,6.50
2023-10-16T08:15:16.106Z,6.60
2023-10-16T08:17:46.962Z,6.80
2023-10-16T08:20:18.921Z,6.80
2023-10-16T08:22:50.930Z,6.90
2023-10-16T08:25:34.812Z,7.00
2023-10-16T08:28:20.414Z,7.00
2023-10-16T08:30:53.733Z,7.10
2023-10-16T08:33:30.369Z,7.20
2023-10-16T08:36:00.750Z,7.20
2023-10-16T08:38:34.401Z,7.40
2023-10-16T08:41:15.556Z,7.40
2023-10-16T08:43:55.820Z,7.60
2023-10-16T08:46:32.752Z,7.70
2023-10-16T08:49:02.845Z,7.70
2023-10-16T08:51:32.393Z,7.80
2023-10-16T08:54:06.038Z,7.80
2023-10-16T08:56:39.248Z,7.80
2023-10-16T08:59:07.698Z,7.80
2023-10-16T09:01:36.627Z,7.90
2023-10-16T09:04:08.193Z,8.00
2023-10-16T09:06:39.574Z,8.00
2023-10-16T09:09:14.288Z,8.10
2023-10-16T09:11:46.921Z,8.10
2023-10-16T09:14:18.801Z,8.10
2023-10-16T09:16:53.851Z,8.30
2023-10-16T09:19:28.914Z,8.30
2023-10-16T09:21:57.514Z,8.40
2023-10-16T09:24:26.149Z,8.40
2023-10-16T09:26:57.424Z,8.50
2023-10-16T09:29:26.711Z,8.60
2023-10-16T09:31:55.887Z,8.50
2023-10-16T09:34:27.568Z,8.60
2023-10-16T09:37:09.953Z,8.70
2023-10-16T09:39:38.504Z,8.70
2023-10-16T09:42:13.294Z,8.80
2023-10-16T09:44:42.111Z,8.90
2023-10-16T09:47:32.993Z,8.90
2023-10-16T09:50:02.797Z,9.10
2023-10-16T09:52:33.774Z,9.10
2023-10-16T09:55:07.165Z,9.20
2023-10-16T09:57:39.704Z,9.40
2023-10-16T10:00:24.898Z,9.50
2023-10-16T10:02:54.087Z,9.60
2023-10-16T10:05:32.828Z,9.60
2023-10-16T10:08:02.458Z,9.70
2023-10-16T10:11:04.445Z,9.80
2023-10-16T10:13:44.940Z,9.90
2023-10-16T10:16:22.225Z,10.00
2023-10-16T10:18:58.244Z,10.10
2023-10-16T10:21:30.444Z,10.10
2023-10-16T10:24:03.269Z,10.00
2023-10-16T10:26:35.279Z,10.10
2023-10-16T10:29:10.822Z,10.10
2023-10-16T10:31:40.061Z,10.10
2023-10-16T10:34:24.799Z,10.10
2023-10-16T10:36:54.808Z,10.00
2023-10-16T10:39:40.487Z,10.10
2023-10-16T10:42:13.494Z,10.10
2023-10-16T10:44:55.094Z,10.30
2023-10-16T10:47:24.886Z,10.40
2023-10-16T10:50:00.027Z,10.80
2023-10-16T10:52:32.505Z,10.80
2023-10-16T10:55:01.399Z,10.80
2023-10-16T10:57:29.997Z,10.80
2023-10-16T11:00:23.650Z,11.10
2023-10-16T11:03:06.689Z,11.20
2023-10-16T11:05:35.336Z,11.10
2023-10-16T11:08:23.779Z,10.80
2023-10-16T11:10:54.217Z,10.60
2023-10-16T11:13:23.268Z,10.70
2023-10-16T11:15:55.648Z,10.70
2023-10-16T11:18:27.693Z,10.90
2023-10-16T11:20:59.942Z,10.90
2023-10-16T11:23:32.563Z,11.10
2023-10-16T11:26:06.365Z,11.60
2023-10-16T11:28:36.437Z,11.20
2023-10-16T11:31:12.884Z,11.10
2023-10-16T11:33:46.364Z,11.60
2023-10-16T11:36:15.920Z,11.70
2023-10-16T11:38:45.996Z,11.80
2023-10-16T11:41:17.903Z,11.80
2023-10-16T11:43:52.791Z,12.20
2023-10-16T11:46:32.745Z,12.50
2023-10-16T11:49:19.142Z,12.60
2023-10-16T11:51:49.669Z,12.40
2023-10-16T11:54:21.581Z,12.60
2023-10-16T11:56:52.327Z,12.70
2023-10-16T11:59:22.887Z,12.40
2023-10-16T12:02:02.550Z,12.60
2023-10-16T12:04:33.328Z,12.40
2023-10-16T12:07:02.084Z,12.30
2023-10-16T12:09:38.713Z,12.10
2023-10-16T12:12:09.132Z,12.30
2023-10-16T12:14:38.937Z,12.40
2023-10-16T12:20:01.530Z,12.80
2023-10-16T12:22:29.820Z,12.60
2023-10-16T12:24:59.327Z,12.70
2023-10-16T12:27:29.186Z,12.60
2023-10-16T12:29:57.878Z,12.40
2023-10-16T12:32:27.765Z,12.40
2023-10-16T12:34:57.526Z,12.20
2023-10-16T12:37:26.427Z,12.20
2023-10-16T12:39:56.623Z,12.20
2023-10-16T12:42:27.098Z,12.30
2023-10-16T12:44:56.454Z,12.40
2023-10-16T12:47:37.406Z,12.40
2023-10-16T12:50:14.464Z,12.50
2023-10-16T12:52:44.374Z,12.20
2023-10-16T12:55:14.565Z,12.20
2023-10-16T12:57:45.382Z,12.20
2023-10-16T13:00:18.707Z,12.30
2023-10-16T13:02:47.954Z,12.50
2023-10-16T13:05:17.996Z,12.70
2023-10-16T13:07:52.227Z,12.90
2023-10-16T13:10:27.778Z,12.80
2023-10-16T13:12:56.804Z,12.70
2023-10-16T13:15:26.960Z,12.80
2023-10-16T13:17:55.488Z,12.70
2023-10-16T13:20:28.929Z,12.50
2023-10-16T13:22:59.187Z,12.30
2023-10-16T13:25:32.811Z,12.30
2023-10-16T13:28:02.193Z,12.30
2023-10-16T13:30:32.803Z,12.40
2023-10-16T13:33:08.750Z,12.40
2023-10-16T13:35:41.796Z,12.30
2023-10-16T13:38:11.273Z,12.30
2023-10-16T13:40:40.707Z,12.30
2023-10-16T13:43:12.168Z,12.30
2023-10-16T13:45:41.005Z,12.10
2023-10-16T13:48:12.067Z,12.30
2023-10-16T13:50:48.802Z,12.20
2023-10-16T13:53:21.591Z,12.20
2023-10-16T13:55:55.732Z,12.30
2023-10-16T13:58:24.259Z,12.40
2023-10-16T14:00:53.221Z,12.30
2023-10-16T14:03:22.595Z,12.40
2023-10-16T14:05:52.918Z,12.40
2023-10-16T14:08:27.516Z,12.50
2023-10-16T14:10:59.117Z,12.40
2023-10-16T14:13:29.630Z,12.30
2023-10-16T14:16:10.485Z,12.30
2023-10-16T14:18:40.333Z,12.30
2023-10-16T14:21:12.473Z,12.10
2023-10-16T14:23:41.258Z,12.00
2023-10-16T14:26:14.072Z,11.90
2023-10-16T14:28:45.543Z,11.80
2023-10-16T14:31:16.265Z,11.80
2023-10-16T14:33:45.144Z,11.80
2023-10-16T14:36:17.832Z,12.00
2023-10-16T14:38:46.553Z,12.00
2023-10-16T14:41:17.051Z,12.00
2023-10-16T14:43:47.806Z,12.10
2023-10-16T14:46:16.970Z,12.30
2023-10-16T14:48:46.038Z,12.10
2023-10-16T14:51:17.262Z,12.20
2023-10-16T14:53:48.081Z,12.20
2023-10-16T14:56:19.571Z,12.20
2023-10-16T15:01:21.216Z,12.10
2023-10-16T15:03:52.399Z,12.00
2023-10-16T15:06:24.142Z,12.10
2023-10-16T15:08:55.186Z,12.20
2023-10-16T15:11:27.369Z,12.00
2023-10-16T15:13:57.054Z,12.10
2023-10-16T15:16:28.399Z,12.00
2023-10-16T15:18:57.147Z,12.00
2023-10-16T15:21:27.152Z,11.90
2023-10-16T15:23:55.484Z,11.90
2023-10-16T15:26:25.819Z,12.10
2023-10-16T15:28:54.354Z,12.10
2023-10-16T15:31:22.693Z,12.10
2023-10-16T15:33:51.140Z,12.10
2023-10-16T15:36:19.993Z,12.10
2023-10-16T15:38:50.365Z,12.10
2023-10-16T15:41:18.647Z,11.90
2023-10-16T15:43:52.467Z,11.80
2023-10-16T15:46:33.000Z,11.70
2023-10-16T15:49:01.833Z,11.90
2023-10-16T15:51:32.236Z,12.00
2023-10-16T15:54:02.070Z,12.10
2023-10-16T15:56:32.291Z,12.10
2023-10-16T15:59:00.456Z,12.10
2023-10-16T16:01:28.752Z,12.00
2023-10-16T16:04:03.889Z,12.00
2023-10-16T16:06:34.928Z,12.00
2023-10-16T16:09:07.961Z,12.00
2023-10-16T16:11:36.286Z,11.90
2023-10-16T16:14:04.572Z,11.90
2023-10-16T16:16:33.657Z,11.90
2023-10-16T16:19:02.185Z,11.90
2023-10-16T16:21:30.610Z,11.80
2023-10-16T16:23:59.942Z,11.80
2023-10-16T16:26:30.629Z,11.60
2023-10-16T16:28:59.312Z,11.20
2023-10-16T16:31:27.759Z,11.00
2023-10-16T16:33:57.173Z,10.90
2023-10-16T16:36:26.252Z,10.80
2023-10-16T16:38:57.002Z,10.70
2023-10-16T16:41:26.353Z,10.80
2023-10-16T16:43:56.568Z,10.70
2023-10-16T16:46:26.927Z,10.60
2023-10-16T16:48:55.769Z,10.30
2023-10-16T16:51:25.195Z,10.50
2023-10-16T16:53:59.798Z,10.60
2023-10-16T16:56:27.956Z,10.40
2023-10-16T16:58:57.867Z,10.20
2023-10-16T17:01:26.216Z,9.90
2023-10-16T17:03:57.027Z,9.80
2023-10-16T17:06:25.330Z,10.00
2023-10-16T17:08:53.783Z,10.30
2023-10-16T17:11:22.414Z,10.40
2023-10-16T17:13:51.182Z,10.00
2023-10-16T17:16:21.152Z,10.00
2023-10-16T17:18:49.849Z,9.70
2023-10-16T17:21:22.955Z,9.50
2023-10-16T17:23:56.868Z,9.30
2023-10-16T17:26:25.103Z,9.20
2023-10-16T17:28:53.511Z,9.20
2023-10-16T17:31:23.505Z,9.50
2023-10-16T17:33:51.922Z,9.80
2023-10-16T17:36:21.210Z,10.00
2023-10-16T17:38:49.636Z,10.00
2023-10-16T17:41:21.080Z,9.60
2023-10-16T17:43:49.305Z,9.30
2023-10-16T17:46:17.683Z,9.10
2023-10-16T17:48:47.903Z,9.20
2023-10-16T17:51:18.159Z,9.30
2023-10-16T17:53:46.462Z,9.10
2023-10-16T17:56:15.296Z,8.90
2023-10-16T17:58:44.005Z,8.80
2023-10-16T18:01:15.453Z,8.50
2023-10-16T18:03:43.996Z,8.30
2023-10-16T18:06:15.524Z,8.30
2023-10-16T18:08:46.209Z,8.50
2023-10-16T18:11:16.199Z,8.50
2023-10-16T18:13:46.962Z,8.40
2023-10-16T18:16:16.045Z,8.40
2023-10-16T18:18:44.365Z,8.60
2023-10-16T18:21:14.551Z,8.80
2023-10-16T18:23:43.030Z,8.50
2023-10-16T18:26:11.668Z,8.20
2023-10-16T18:28:39.843Z,8.10
2023-10-16T18:31:10.522Z,8.30
2023-10-16T18:33:41.782Z,8.60
2023-10-16T18:36:11.434Z,8.90
2023-10-16T18:38:41.990Z,9.00
2023-10-16T18:41:10.830Z,8.80
2023-10-16T18:43:40.259Z,8.30
2023-10-16T18:46:10.023Z,8.00
2023-10-16T18:48:40.206Z,7.90
2023-10-16T18:51:08.824Z,8.00
2023-10-16T18:53:38.082Z,8.40
2023-10-16T18:56:11.945Z,8.70
2023-10-16T18:58:41.618Z,8.80
2023-10-16T19:01:13.049Z,8.50
2023-10-16T19:03:41.341Z,8.50
2023-10-16T19:06:11.581Z,8.20
2023-10-16T19:08:41.666Z,7.90
2023-10-16T19:11:12.161Z,7.90
2023-10-16T19:13:42.585Z,7.70
2023-10-16T19:16:11.329Z,7.70
2023-10-16T19:18:40.019Z,7.60
2023-10-16T19:21:08.249Z,7.60
2023-10-16T19:23:37.720Z,7.90
2023-10-16T19:26:08.121Z,8.30
2023-10-16T19:28:38.968Z,8.20
2023-10-16T19:31:07.543Z,7.90
2023-10-16T19:33:38.118Z,7.80
2023-10-16T19:36:15.365Z,7.80
2023-10-16T19:38:45.677Z,8.00
2023-10-16T19:41:15.366Z,8.10
2023-10-16T19:43:45.339Z,7.80
2023-10-16T19:46:15.651Z,7.70
2023-10-16T19:48:46.366Z,7.90
2023-10-16T19:51:16.605Z,8.10
2023-10-16T19:53:47.225Z,8.10
2023-10-16T19:56:16.342Z,7.90
2023-10-16T19:58:47.336Z,7.70
2023-10-16T20:01:16.566Z,7.70
2023-10-16T20:03:46.740Z,7.80
2023-10-16T20:06:17.792Z,7.90
2023-10-16T20:08:46.221Z,8.00
2023-10-16T20:11:14.680Z,8.30
2023-10-16T20:13:43.627Z,8.20
2023-10-16T20:16:13.913Z,7.80
2023-10-16T20:18:43.034Z,7.50
2023-10-16T20:21:13.523Z,7.80
2023-10-16T20:23:42.348Z,7.90
2023-10-16T20:26:16.925Z,7.60
2023-10-16T20:28:45.676Z,7.70
2023-10-16T20:31:15.655Z,8.00
2023-10-16T20:33:46.257Z,8.00
2023-10-16T20:36:15.319Z,7.70
2023-10-16T20:38:44.163Z,7.50
2023-10-16T20:41:14.329Z,7.40
2023-10-16T20:43:43.062Z,7.30
2023-10-16T20:46:11.281Z,7.50
2023-10-16T20:48:42.041Z,7.70
2023-10-16T20:51:10.939Z,7.60
2023-10-16T20:53:39.164Z,7.30
2023-10-16T20:56:09.585Z,7.10
2023-10-16T20:58:37.707Z,7.20
2023-10-16T21:01:10.695Z,7.20
2023-10-16T21:03:42.526Z,7.40
2023-10-16T21:06:12.144Z,7.50
2023-10-16T21:08:40.636Z,7.40
2023-10-16T21:11:08.821Z,7.30
2023-10-16T21:13:38.046Z,7.00
2023-10-16T21:16:07.163Z,6.80
2023-10-16T21:18:35.436Z,6.70
2023-10-16T21:21:05.639Z,6.70
2023-10-16T21:23:33.815Z,6.70
2023-10-16T21:26:01.997Z,6.80
2023-10-16T21:28:30.553Z,6.60
2023-10-16T21:30:59.672Z,6.60
2023-10-16T21:33:28.028Z,6.80
2023-10-16T21:36:05.328Z,7.00
2023-10-16T21:38:34.089Z,6.90
2023-10-16T21:41:02.462Z,7.00
2023-10-16T21:43:31.761Z,6.90
2023-10-16T21:46:01.339Z,6.80
2023-10-16T21:48:29.937Z,6.80
2023-10-16T21:50:58.751Z,6.90
2023-10-16T21:53:31.097Z,7.00
2023-10-16T21:55:59.313Z,7.10
2023-10-16T21:58:27.486Z,7.00
2023-10-16T22:01:00.306Z,7.10
2023-10-16T22:03:28.810Z,7.00
2023-10-16T22:05:57.278Z,7.20
2023-10-16T22:08:30.765Z,7.10
2023-10-16T22:10:59.927Z,6.80
2023-10-16T22:13:29.071Z,6.40
2023-10-16T22:15:57.364Z,6.20
2023-10-16T22:18:26.172Z,6.20
2023-10-16T22:21:07.239Z,6.10
2023-10-16T22:23:46.428Z,5.90
2023-10-16T22:26:17.796Z,5.90
2023-10-16T22:28:46.086Z,6.20
2023-10-16T22:31:15.409Z,6.00
2023-10-16T22:33:44.203Z,6.00
2023-10-16T22:36:12.758Z,5.80
2023-10-16T22:38:41.208Z,5.60
2023-10-16T22:41:12.467Z,5.50
2023-10-16T22:43:40.971Z,5.50
2023-10-16T22:46:09.383Z,5.50
2023-10-16T22:48:37.908Z,5.40
2023-10-16T22:51:06.878Z,5.70
2023-10-16T22:53:35.187Z,6.20
2023-10-16T22:56:05.874Z,6.40
2023-10-16T22:58:36.158Z,6.40
2023-10-16T23:01:06.483Z,6.50
2023-10-16T23:03:36.884Z,6.30
2023-10-16T23:06:06.587Z,6.10
2023-10-16T23:08:40.161Z,5.90
2023-10-16T23:11:19.309Z,5.60
2023-10-16T23:13:49.215Z,5.30
2023-10-16T23:16:17.557Z,5.20
2023-10-16T23:18:45.890Z,5.10
2023-10-16T23:21:14.152Z,5.30
2023-10-16T23:23:42.425Z,5.30
2023-10-16T23:26:13.386Z,5.20
2023-10-16T23:28:41.709Z,5.10
2023-10-16T23:31:15.966Z,5.30
2023-10-16T23:33:48.087Z,5.20
2023-10-16T23:36:16.806Z,5.30
2023-10-16T23:38:45.923Z,5.60
2023-10-16T23:41:30.272Z,5.60
2023-10-16T23:44:16.060Z,5.20
2023-10-16T23:46:46.458Z,5.00
2023-10-16T23:49:19.230Z,5.00
2023-10-16T23:51:49.745Z,4.80
2023-10-16T23:54:20.793Z,4.90
2023-10-16T23:56:53.242Z,4.90
2023-10-16T23:59:21.590Z,5.10
